Time;durP1;ratioP1;P1;durP2;ratioP2;P2;SDS_P1;SDS_P2;PMS_P1;PMS_P2;Temp;Humidity;BMP_temperature;BMP_pressure;BME280_temperature;BME280_humidity;BME280_pressure;Samples;Min_cycle;Max_cycle;Signal;HPM_P1;HPM_P2
2021/09/10 00:01:48;;;;;;;12.32;10.55;;;23.90;36.20;;;;;;5074081;28;20560;-64
2021/09/10 00:04:14;;;;;;;14.73;10.30;;;23.90;36.30;;;;;;5073599;28;20030;-64
2021/09/10 00:06:41;;;;;;;11.30;10.15;;;23.90;36.60;;;;;;5092974;28;20458;-64
2021/09/10 00:09:06;;;;;;;13.60;10.38;;;23.90;36.30;;;;;;5094065;28;20042;-64
2021/09/10 00:11:32;;;;;;;12.02;10.35;;;23.80;36.60;;;;;;5092347;28;20028;-64
2021/09/10 00:13:58;;;;;;;14.65;10.70;;;23.80;36.60;;;;;;5075161;28;20043;-64
2021/09/10 00:16:24;;;;;;;15.05;10.45;;;23.70;36.70;;;;;;5092962;28;20023;-64
2021/09/10 00:18:50;;;;;;;14.40;10.43;;;23.70;37.00;;;;;;5094146;28;20030;-64
2021/09/10 00:21:16;;;;;;;14.32;10.18;;;23.60;37.40;;;;;;5069461;28;20032;-63
2021/09/10 00:23:42;;;;;;;12.10;9.27;;;23.50;38.00;;;;;;5093165;28;20076;-64
2021/09/10 00:26:08;;;;;;;13.68;10.98;;;23.50;34.30;;;;;;5093075;28;20024;-64
2021/09/10 00:28:33;;;;;;;16.98;10.82;;;23.50;32.70;;;;;;5058224;28;20490;-64
2021/09/10 00:30:59;;;;;;;14.52;10.20;;;23.50;33.00;;;;;;5092969;28;20034;-64
2021/09/10 00:33:25;;;;;;;12.35;10.45;;;23.50;34.00;;;;;;5088261;28;20477;-63
2021/09/10 00:35:51;;;;;;;15.57;11.18;;;23.50;34.70;;;;;;5091843;28;20089;-63
2021/09/10 00:38:16;;;;;;;13.82;10.05;;;23.40;36.40;;;;;;5072005;28;20390;-63
2021/09/10 00:40:44;;;;;;;12.13;10.05;;;23.50;37.30;;;;;;5073607;28;20147;-64
2021/09/10 00:43:10;;;;;;;17.67;10.10;;;23.40;38.40;;;;;;5088812;28;20069;-64
2021/09/10 00:45:40;;;;;;;14.65;10.68;;;23.40;42.90;;;;;;5093347;28;20028;-64
2021/09/10 00:48:06;;;;;;;14.68;10.05;;;23.40;48.10;;;;;;5092202;28;20485;-64
2021/09/10 00:50:32;;;;;;;12.43;10.50;;;23.40;40.30;;;;;;5093119;28;20024;-64
2021/09/10 00:52:57;;;;;;;12.52;10.52;;;23.30;40.90;;;;;;5087206;28;20021;-64
2021/09/10 00:55:25;;;;;;;12.57;10.10;;;23.30;41.20;;;;;;5090909;28;20084;-64
2021/09/10 00:57:51;;;;;;;11.32;10.23;;;23.30;35.30;;;;;;5091458;28;20465;-64
2021/09/10 01:00:17;;;;;;;12.18;9.73;;;23.30;41.20;;;;;;5093094;28;20481;-66
2021/09/10 01:02:42;;;;;;;14.98;10.20;;;23.30;42.40;;;;;;5073022;28;20474;-64
2021/09/10 01:05:08;;;;;;;15.40;10.45;;;23.30;40.70;;;;;;5092585;28;20107;-65
2021/09/10 01:07:35;;;;;;;16.02;10.15;;;23.30;33.40;;;;;;5088567;28;20052;-64
2021/09/10 01:10:02;;;;;;;11.68;9.93;;;23.30;33.20;;;;;;5090649;28;20036;-65
2021/09/10 01:12:28;;;;;;;13.68;10.20;;;23.30;31.60;;;;;;5073797;28;20176;-64
2021/09/10 01:14:54;;;;;;;13.00;10.77;;;23.40;31.00;;;;;;5074033;28;20123;-64
2021/09/10 01:17:20;;;;;;;14.73;11.05;;;23.30;30.90;;;;;;5092017;28;20359;-64
2021/09/10 01:19:46;;;;;;;11.57;10.45;;;23.30;31.10;;;;;;5075246;28;20027;-64
2021/09/10 01:22:12;;;;;;;11.48;10.38;;;23.30;31.20;;;;;;5091094;28;20120;-65
2021/09/10 01:24:41;;;;;;;16.27;10.77;;;23.30;31.20;;;;;;5072513;28;20028;-65
2021/09/10 01:27:07;;;;;;;15.15;11.55;;;23.30;31.20;;;;;;5091869;28;20052;-64
2021/09/10 01:29:35;;;;;;;15.57;11.05;;;23.30;31.80;;;;;;5074277;28;20031;-64
2021/09/10 01:32:02;;;;;;;13.45;10.27;;;23.40;31.40;;;;;;5090623;28;20449;-64
2021/09/10 01:34:27;;;;;;;12.32;10.90;;;23.30;31.40;;;;;;5073672;28;20032;-64
2021/09/10 01:36:53;;;;;;;11.10;9.95;;;23.30;31.60;;;;;;5090474;28;20112;-64
2021/09/10 01:39:19;;;;;;;12.07;10.85;;;23.30;31.80;;;;;;5074277;28;20024;-64
2021/09/10 01:41:44;;;;;;;12.00;10.77;;;23.40;31.70;;;;;;5089965;28;20524;-64
2021/09/10 01:44:10;;;;;;;12.70;10.90;;;23.40;31.90;;;;;;5091475;28;20091;-64
2021/09/10 01:46:36;;;;;;;12.77;11.48;;;23.30;31.80;;;;;;5092101;28;20024;-64
2021/09/10 01:49:02;;;;;;;12.98;10.82;;;23.30;31.80;;;;;;5072026;28;20031;-64
2021/09/10 01:51:33;;;;;;;12.38;10.75;;;23.30;32.00;;;;;;5091331;28;20024;-64
2021/09/10 01:53:59;;;;;;;12.35;9.70;;;23.30;32.10;;;;;;5091323;28;20020;-64
2021/09/10 01:56:26;;;;;;;11.45;10.27;;;23.30;32.20;;;;;;5092268;28;20036;-64
2021/09/10 01:58:53;;;;;;;12.60;10.65;;;23.30;32.20;;;;;;5092152;28;20044;-64
2021/09/10 02:01:23;;;;;;;12.18;10.05;;;23.30;32.40;;;;;;5091576;28;20032;-65
2021/09/10 02:03:48;;;;;;;12.98;10.13;;;23.30;32.30;;;;;;5090931;28;20031;-64
2021/09/10 02:06:14;;;;;;;14.00;10.93;;;23.20;32.20;;;;;;5092192;28;20020;-64
2021/09/10 02:08:39;;;;;;;11.40;9.45;;;23.30;32.50;;;;;;5091595;28;20393;-64
2021/09/10 02:11:05;;;;;;;15.27;10.85;;;23.30;32.60;;;;;;5092272;28;20066;-65
2021/09/10 02:13:30;;;;;;;11.60;10.25;;;23.30;32.60;;;;;;5090494;28;20405;-64
2021/09/10 02:15:56;;;;;;;11.15;10.02;;;23.30;32.70;;;;;;5092561;28;20020;-64
2021/09/10 02:18:22;;;;;;;12.27;10.85;;;23.30;32.70;;;;;;5091239;28;20067;-64
2021/09/10 02:20:47;;;;;;;11.45;10.35;;;23.20;32.70;;;;;;5072626;28;20035;-64
2021/09/10 02:23:13;;;;;;;12.13;10.55;;;23.20;32.70;;;;;;5091572;28;20032;-64
2021/09/10 02:25:38;;;;;;;10.93;9.85;;;23.20;32.90;;;;;;5091720;28;20470;-64
2021/09/10 02:28:04;;;;;;;11.65;10.40;;;23.20;33.10;;;;;;5090393;28;20382;-65
2021/09/10 02:30:32;;;;;;;12.13;10.88;;;23.20;33.20;;;;;;5091678;28;20024;-65
2021/09/10 02:32:58;;;;;;;13.20;10.50;;;23.20;32.90;;;;;;5089821;28;20028;-64
2021/09/10 02:35:24;;;;;;;13.30;10.82;;;23.20;32.90;;;;;;5081828;28;20046;-65
2021/09/10 02:37:49;;;;;;;13.32;10.30;;;23.20;32.90;;;;;;5086333;28;20036;-64
2021/09/10 02:40:15;;;;;;;10.20;9.30;;;23.20;32.70;;;;;;5091542;28;20028;-65
2021/09/10 02:42:40;;;;;;;10.80;9.73;;;23.20;32.90;;;;;;5090549;28;20047;-65
2021/09/10 02:45:06;;;;;;;13.45;10.93;;;23.10;33.10;;;;;;5073899;28;20024;-65
2021/09/10 02:47:32;;;;;;;11.75;10.43;;;23.10;33.00;;;;;;5091544;28;20059;-65
2021/09/10 02:49:57;;;;;;;11.77;10.57;;;23.20;33.10;;;;;;5071795;28;20477;-65
2021/09/10 02:52:23;;;;;;;14.82;10.98;;;23.10;32.50;;;;;;5087902;28;20059;-65
2021/09/10 02:54:49;;;;;;;12.80;10.32;;;23.10;32.20;;;;;;5092115;28;20031;-64
2021/09/10 02:57:14;;;;;;;15.80;10.45;;;23.00;32.00;;;;;;5072993;28;20517;-64
2021/09/10 02:59:40;;;;;;;14.02;10.93;;;23.00;31.70;;;;;;5075242;28;20048;-64
2021/09/10 03:02:05;;;;;;;12.98;10.90;;;23.10;31.70;;;;;;5090157;28;20032;-65
2021/09/10 03:04:31;;;;;;;10.93;9.93;;;23.00;31.60;;;;;;5092651;28;20532;-65
2021/09/10 03:06:57;;;;;;;12.52;10.63;;;22.90;31.40;;;;;;5094729;28;20028;-64
2021/09/10 03:09:22;;;;;;;17.63;11.95;;;22.90;31.40;;;;;;5093864;28;20073;-65
2021/09/10 03:11:48;;;;;;;14.02;10.45;;;22.80;30.80;;;;;;5095652;28;20107;-65
2021/09/10 03:14:13;;;;;;;10.93;9.82;;;22.90;30.80;;;;;;5093273;28;20103;-64
2021/09/10 03:16:39;;;;;;;13.63;10.02;;;22.90;30.90;;;;;;5092382;28;20034;-64
2021/09/10 03:19:04;;;;;;;12.07;10.77;;;22.80;31.10;;;;;;5094701;28;20028;-64
2021/09/10 03:21:30;;;;;;;11.48;9.70;;;22.70;31.30;;;;;;5094567;28;20043;-65
2021/09/10 03:23:56;;;;;;;10.75;9.65;;;22.80;31.30;;;;;;5093968;28;20020;-65
2021/09/10 03:26:21;;;;;;;12.73;10.55;;;22.70;31.00;;;;;;5094855;28;20376;-65
2021/09/10 03:28:47;;;;;;;13.50;10.88;;;22.70;31.00;;;;;;5074216;28;20028;-64
2021/09/10 03:31:13;;;;;;;11.73;10.50;;;22.60;31.20;;;;;;5094795;28;20474;-64
2021/09/10 03:33:38;;;;;;;11.10;10.02;;;22.70;31.30;;;;;;5093738;28;20058;-64
2021/09/10 03:36:04;;;;;;;13.50;10.43;;;22.70;31.50;;;;;;5094775;28;20384;-65
2021/09/10 03:38:29;;;;;;;12.82;9.95;;;22.70;31.70;;;;;;5092726;28;20024;-65
2021/09/10 03:40:55;;;;;;;12.60;10.07;;;22.70;31.40;;;;;;5090849;28;20035;-64
2021/09/10 03:43:21;;;;;;;11.25;10.15;;;22.70;31.60;;;;;;5093528;28;20028;-64
2021/09/10 03:45:46;;;;;;;13.18;10.57;;;22.80;31.70;;;;;;5074648;28;20086;-65
2021/09/10 03:48:12;;;;;;;12.15;9.68;;;22.90;31.50;;;;;;5083389;28;20032;-65
2021/09/10 03:50:37;;;;;;;12.63;10.70;;;22.80;31.60;;;;;;5091405;28;20036;-65
2021/09/10 03:53:03;;;;;;;14.02;10.52;;;22.70;31.10;;;;;;5092971;28;20027;-65
2021/09/10 03:55:47;;;;;;;12.95;10.55;;;22.70;31.40;;;;;;5093521;28;20399;-65
2021/09/10 03:58:13;;;;;;;14.10;11.07;;;22.90;32.10;;;;;;5073642;28;20051;-65
2021/09/10 04:00:38;;;;;;;11.45;10.02;;;22.80;31.00;;;;;;5080317;28;20024;-65
2021/09/10 04:03:04;;;;;;;11.60;9.88;;;22.90;31.30;;;;;;5093321;28;20081;-65
2021/09/10 04:05:30;;;;;;;15.63;9.90;;;22.80;31.50;;;;;;5070551;28;20028;-65
2021/09/10 04:07:56;;;;;;;13.15;9.23;;;22.90;32.00;;;;;;5092141;28;20093;-66
2021/09/10 04:10:21;;;;;;;11.52;9.80;;;22.90;31.80;;;;;;5073485;28;20770;-65
2021/09/10 04:12:47;;;;;;;11.57;9.95;;;22.80;31.20;;;;;;5092128;28;20028;-64
2021/09/10 04:15:12;;;;;;;16.13;9.88;;;22.80;31.50;;;;;;5075479;28;20020;-64
2021/09/10 04:17:38;;;;;;;11.93;10.73;;;22.90;31.40;;;;;;5093468;28;20020;-65
2021/09/10 04:20:04;;;;;;;12.30;10.15;;;22.80;31.30;;;;;;5093532;28;20036;-64
2021/09/10 04:22:30;;;;;;;12.38;10.65;;;22.70;31.20;;;;;;5092273;28;20379;-64
2021/09/10 04:24:55;;;;;;;15.48;10.68;;;22.80;31.20;;;;;;5093665;28;20028;-64
2021/09/10 04:27:21;;;;;;;12.40;9.80;;;22.70;31.20;;;;;;5094261;28;20028;-64
2021/09/10 04:29:46;;;;;;;11.32;9.95;;;22.80;31.50;;;;;;5091173;28;20418;-64
2021/09/10 04:32:12;;;;;;;14.55;9.57;;;22.80;31.80;;;;;;5093374;28;20057;-64
2021/09/10 04:34:37;;;;;;;14.73;10.35;;;22.80;32.20;;;;;;5074238;28;20016;-64
2021/09/10 04:37:06;;;;;;;10.88;9.80;;;22.80;31.90;;;;;;5075048;28;20058;-64
2021/09/10 04:39:31;;;;;;;12.30;9.75;;;22.80;32.00;;;;;;5092846;28;20428;-64
2021/09/10 04:41:57;;;;;;;11.95;9.52;;;22.80;31.60;;;;;;5073384;28;20036;-63
2021/09/10 04:44:22;;;;;;;10.68;9.13;;;22.80;31.70;;;;;;5088371;28;20043;-64
2021/09/10 04:46:48;;;;;;;12.90;9.82;;;22.80;31.60;;;;;;5092925;28;20036;-64
2021/09/10 04:49:14;;;;;;;13.45;10.07;;;22.80;31.70;;;;;;5073924;28;20418;-64
2021/09/10 04:51:39;;;;;;;12.30;9.85;;;22.80;31.40;;;;;;5092682;28;20389;-63
2021/09/10 04:54:05;;;;;;;16.92;9.82;;;22.80;31.60;;;;;;5092929;28;20061;-64
2021/09/10 04:56:30;;;;;;;12.35;10.70;;;22.80;31.60;;;;;;5074088;28;20029;-64
2021/09/10 04:58:56;;;;;;;12.18;9.88;;;22.80;31.50;;;;;;5091525;28;20408;-64
2021/09/10 05:01:22;;;;;;;14.02;9.95;;;22.70;31.40;;;;;;5091975;28;20032;-65
2021/09/10 05:03:47;;;;;;;10.35;9.32;;;22.70;31.30;;;;;;5073870;28;20024;-64
2021/09/10 05:06:14;;;;;;;11.32;10.18;;;22.70;31.40;;;;;;5091368;28;20020;-64
2021/09/10 05:08:39;;;;;;;12.57;9.48;;;22.80;31.50;;;;;;5091776;28;20462;-63
2021/09/10 05:11:05;;;;;;;11.25;9.50;;;22.80;31.50;;;;;;5090021;28;20039;-64
2021/09/10 05:13:31;;;;;;;12.50;10.15;;;22.80;31.80;;;;;;5092727;28;20036;-65
2021/09/10 05:15:57;;;;;;;13.80;10.55;;;22.80;31.70;;;;;;5093633;28;20036;-65
2021/09/10 05:18:23;;;;;;;12.50;9.90;;;22.80;31.60;;;;;;5092709;28;20024;-65
2021/09/10 05:20:49;;;;;;;14.02;9.65;;;22.80;31.60;;;;;;5074043;28;20024;-65
2021/09/10 05:23:14;;;;;;;13.77;10.63;;;22.80;31.50;;;;;;5090205;28;20118;-65
2021/09/10 05:25:40;;;;;;;14.50;10.95;;;22.80;31.20;;;;;;5073294;28;20020;-65
2021/09/10 05:28:05;;;;;;;12.95;9.52;;;22.80;31.50;;;;;;5091332;28;20036;-65
2021/09/10 05:30:31;;;;;;;12.93;9.90;;;22.80;31.50;;;;;;5092526;28;20063;-65
2021/09/10 05:33:09;;;;;;;11.60;10.13;;;22.90;31.90;;;;;;5073182;28;20077;-65
2021/09/10 05:35:34;;;;;;;13.07;10.32;;;22.90;32.30;;;;;;5073015;28;20038;-65
2021/09/10 05:38:00;;;;;;;12.50;10.73;;;22.90;32.00;;;;;;5074143;28;20020;-65
2021/09/10 05:40:26;;;;;;;12.95;10.07;;;22.90;31.90;;;;;;5091032;28;20063;-65
2021/09/10 05:42:52;;;;;;;11.85;9.98;;;22.90;32.50;;;;;;5072530;28;20455;-65
2021/09/10 05:45:17;;;;;;;15.23;10.40;;;22.90;32.50;;;;;;5072784;28;20073;-65
2021/09/10 05:47:43;;;;;;;13.10;10.40;;;22.80;31.90;;;;;;5092624;28;20035;-65
2021/09/10 05:50:09;;;;;;;14.68;9.85;;;22.90;32.10;;;;;;5091522;28;20019;-65
2021/09/10 05:52:34;;;;;;;15.85;10.70;;;22.90;32.20;;;;;;5091177;28;20382;-64
2021/09/10 05:55:00;;;;;;;12.35;10.40;;;23.00;32.30;;;;;;5090610;28;20059;-64
2021/09/10 05:57:25;;;;;;;13.02;11.02;;;23.00;32.30;;;;;;5074341;28;20087;-65
2021/09/10 05:59:51;;;;;;;14.52;11.35;;;22.90;32.40;;;;;;5090777;28;20442;-65
2021/09/10 06:02:17;;;;;;;12.52;10.60;;;22.80;32.50;;;;;;5091531;28;20161;-65
2021/09/10 06:04:43;;;;;;;13.30;11.10;;;22.90;33.10;;;;;;5081998;28;20379;-65
2021/09/10 06:07:09;;;;;;;15.65;12.10;;;22.90;33.10;;;;;;5088824;28;20028;-64
2021/09/10 06:09:34;;;;;;;17.20;12.50;;;22.90;33.10;;;;;;5083059;28;20496;-65
2021/09/10 06:12:00;;;;;;;13.23;11.82;;;23.00;32.90;;;;;;5089380;28;20032;-65
2021/09/10 06:14:26;;;;;;;12.13;10.93;;;23.00;32.60;;;;;;5088898;28;20134;-65
2021/09/10 06:16:52;;;;;;;15.38;11.45;;;23.10;32.90;;;;;;5070802;28;20028;-65
2021/09/10 06:19:17;;;;;;;15.77;11.88;;;23.00;33.30;;;;;;5087449;28;20381;-65
2021/09/10 06:21:43;;;;;;;12.70;11.13;;;23.00;33.40;;;;;;5086866;28;20036;-65
2021/09/10 06:24:09;;;;;;;16.02;11.77;;;23.00;33.40;;;;;;5088241;28;20028;-65
2021/09/10 06:26:35;;;;;;;14.77;11.27;;;23.00;33.10;;;;;;5089976;28;20032;-65
2021/09/10 06:29:01;;;;;;;14.27;10.90;;;23.20;33.20;;;;;;5087923;28;20454;-64
2021/09/10 06:31:26;;;;;;;13.95;11.45;;;23.10;32.60;;;;;;5091996;28;20028;-64
2021/09/10 06:33:52;;;;;;;16.55;12.25;;;23.20;33.40;;;;;;5085156;28;20107;-64
2021/09/10 06:36:18;;;;;;;23.42;13.43;;;23.10;33.30;;;;;;5096493;28;20028;-64
2021/09/10 06:38:43;;;;;;;21.83;13.43;;;23.10;33.30;;;;;;5092994;28;20168;-64
2021/09/10 06:41:09;;;;;;;27.55;14.20;;;23.20;33.90;;;;;;5100922;28;20473;-64
2021/09/10 06:43:35;;;;;;;22.73;13.65;;;23.10;34.20;;;;;;5079666;28;20035;-64
2021/09/10 06:46:00;;;;;;;18.08;14.10;;;23.10;34.30;;;;;;5092820;28;20039;-65
2021/09/10 06:48:26;;;;;;;22.33;14.77;;;23.10;34.30;;;;;;5093466;28;20512;-64
2021/09/10 06:50:51;;;;;;;18.83;14.38;;;23.10;34.50;;;;;;5094743;28;20115;-64
2021/09/10 06:53:17;;;;;;;19.25;13.73;;;23.10;34.40;;;;;;5095601;28;20098;-65
2021/09/10 06:55:42;;;;;;;15.75;13.77;;;23.20;34.00;;;;;;5073088;28;20097;-64
2021/09/10 06:58:08;;;;;;;15.70;13.00;;;23.30;33.60;;;;;;5090921;28;21201;-65
2021/09/10 07:00:34;;;;;;;16.40;13.38;;;23.30;33.50;;;;;;5093278;28;20036;-65
2021/09/10 07:02:59;;;;;;;18.08;13.95;;;23.30;33.30;;;;;;5075025;28;20033;-64
2021/09/10 07:05:25;;;;;;;16.25;13.60;;;23.30;33.90;;;;;;5094871;28;20070;-65
2021/09/10 07:07:52;;;;;;;22.00;13.95;;;23.30;33.20;;;;;;5093163;28;20106;-65
2021/09/10 07:10:18;;;;;;;22.55;14.68;;;23.40;33.00;;;;;;5094335;28;20031;-64
2021/09/10 07:12:44;;;;;;;17.90;14.55;;;23.50;33.30;;;;;;5094525;28;20505;-64
2021/09/10 07:15:10;;;;;;;21.95;14.35;;;23.50;33.20;;;;;;5094071;28;20107;-64
2021/09/10 07:17:35;;;;;;;21.60;15.48;;;23.60;33.10;;;;;;5094999;28;20111;-64
2021/09/10 07:20:01;;;;;;;20.73;15.55;;;23.50;33.10;;;;;;5088389;28;20397;-64
2021/09/10 07:22:27;;;;;;;24.65;16.05;;;23.50;32.90;;;;;;5091533;28;20155;-64
2021/09/10 07:24:52;;;;;;;20.25;15.35;;;23.50;32.80;;;;;;5083085;28;20024;-64
2021/09/10 07:27:18;;;;;;;22.25;16.00;;;23.60;33.00;;;;;;5077117;28;20032;-64
2021/09/10 07:29:44;;;;;;;27.38;18.00;;;23.50;32.90;;;;;;5092793;28;20020;-64
2021/09/10 07:32:10;;;;;;;25.42;17.10;;;23.60;33.00;;;;;;5094613;28;20032;-64
2021/09/10 07:34:35;;;;;;;22.98;16.25;;;23.70;33.00;;;;;;5094207;28;20499;-64
2021/09/10 07:37:01;;;;;;;27.20;18.23;;;23.80;32.80;;;;;;5093759;28;20039;-64
2021/09/10 07:39:27;;;;;;;22.23;16.98;;;23.80;32.60;;;;;;5094426;28;20488;-64
2021/09/10 07:41:53;;;;;;;26.02;17.55;;;23.80;33.30;;;;;;5095344;28;20044;-64
2021/09/10 07:44:18;;;;;;;19.17;16.25;;;23.80;32.30;;;;;;5093771;28;20024;-64
2021/09/10 07:46:46;;;;;;;19.08;15.50;;;23.90;32.00;;;;;;5095212;28;20077;-64
2021/09/10 07:49:12;;;;;;;19.88;16.40;;;23.90;32.10;;;;;;5094402;28;20432;-64
2021/09/10 07:51:38;;;;;;;18.20;15.02;;;24.00;31.60;;;;;;5093302;28;20036;-64
2021/09/10 07:54:05;;;;;;;17.13;15.35;;;24.00;31.20;;;;;;5073592;28;20028;-64
2021/09/10 07:56:31;;;;;;;23.60;16.30;;;24.10;30.80;;;;;;5092796;28;20107;-64
2021/09/10 07:58:56;;;;;;;20.08;15.90;;;24.10;31.00;;;;;;5094565;28;20496;-64
2021/09/10 08:01:22;;;;;;;21.88;15.50;;;24.10;31.00;;;;;;5093698;28;20036;-64
2021/09/10 08:03:48;;;;;;;23.50;14.73;;;24.00;30.90;;;;;;5094574;28;20362;-64
2021/09/10 08:06:13;;;;;;;20.33;14.93;;;24.00;31.50;;;;;;5093861;28;20036;-64
2021/09/10 08:08:39;;;;;;;18.48;14.32;;;23.90;31.40;;;;;;5058642;28;20105;-64
2021/09/10 08:11:05;;;;;;;17.17;13.63;;;24.00;31.60;;;;;;5091911;28;20035;-64
2021/09/10 08:13:31;;;;;;;16.75;14.25;;;24.10;31.40;;;;;;5076190;28;20098;-64
2021/09/10 08:15:57;;;;;;;18.80;14.02;;;24.00;30.90;;;;;;5071155;28;20555;-64
2021/09/10 08:18:22;;;;;;;16.45;13.00;;;24.10;31.10;;;;;;5085709;28;20024;-64
2021/09/10 08:20:48;;;;;;;20.35;12.32;;;24.10;30.30;;;;;;5089102;28;20077;-64
2021/09/10 08:23:14;;;;;;;16.40;13.40;;;24.10;29.20;;;;;;5075793;28;20024;-64
2021/09/10 08:25:40;;;;;;;20.17;14.20;;;24.20;29.50;;;;;;5093216;28;20030;-64
2021/09/10 08:28:05;;;;;;;15.38;13.60;;;24.30;29.40;;;;;;5093272;28;20492;-64
2021/09/10 08:30:31;;;;;;;15.95;11.77;;;24.40;29.40;;;;;;5091628;28;20054;-64
2021/09/10 08:32:58;;;;;;;17.70;11.60;;;24.50;29.40;;;;;;5093770;28;20026;-64
2021/09/10 08:35:24;;;;;;;17.75;15.05;;;24.60;29.10;;;;;;5093056;28;20414;-64
2021/09/10 08:37:50;;;;;;;13.80;12.25;;;24.70;28.80;;;;;;5093849;28;20476;-64
2021/09/10 08:40:17;;;;;;;16.95;11.90;;;24.80;28.20;;;;;;5092999;28;20028;-63
2021/09/10 08:42:43;;;;;;;14.02;12.55;;;24.80;28.40;;;;;;5092446;28;20028;-63
2021/09/10 08:45:10;;;;;;;18.67;14.07;;;24.80;28.10;;;;;;5092836;28;20495;-63
2021/09/10 08:47:38;;;;;;;15.23;12.77;;;24.90;28.20;;;;;;5075200;28;20028;-63
2021/09/10 08:50:03;;;;;;;16.30;12.25;;;24.80;28.00;;;;;;5091803;28;20035;-64
2021/09/10 08:52:29;;;;;;;20.40;12.50;;;24.80;28.00;;;;;;5091311;28;20027;-63
2021/09/10 08:54:54;;;;;;;18.33;13.05;;;24.70;27.90;;;;;;5084903;28;20040;-63
2021/09/10 08:57:26;;;;;;;16.67;12.35;;;24.80;28.10;;;;;;5091553;28;20498;-63
2021/09/10 09:00:06;;;;;;;14.95;11.27;;;24.80;27.60;;;;;;5065360;28;20028;-63
2021/09/10 09:03:09;;;;;;;12.95;9.95;;;25.00;27.60;;;;;;5093183;28;20113;-63
2021/09/10 09:05:36;;;;;;;11.73;10.32;;;25.00;26.30;;;;;;5010183;28;20669;-63
2021/09/10 09:08:08;;;;;;;13.07;11.45;;;25.10;27.10;;;;;;5058659;28;20040;-64
2021/09/10 09:10:56;;;;;;;14.80;11.75;;;25.20;26.70;;;;;;5080583;28;20039;-63
2021/09/10 09:13:23;;;;;;;38.70;28.98;;;25.20;26.90;;;;;;5054316;28;20383;-64
2021/09/10 09:15:48;;;;;;;16.17;11.90;;;25.20;27.10;;;;;;5080035;28;20099;-64
2021/09/10 09:18:14;;;;;;;12.75;10.75;;;25.30;27.10;;;;;;5091804;28;20113;-64
2021/09/10 09:20:46;;;;;;;13.30;10.43;;;25.20;26.80;;;;;;5092180;28;20481;-64
2021/09/10 09:23:12;;;;;;;14.00;9.98;;;25.30;26.60;;;;;;5093231;28;20118;-64
2021/09/10 09:25:48;;;;;;;14.15;10.35;;;25.40;26.20;;;;;;5091950;28;20028;-64
2021/09/10 09:28:24;;;;;;;16.30;10.70;;;25.50;26.20;;;;;;5073873;28;20031;-64
2021/09/10 09:30:55;;;;;;;14.10;11.07;;;25.60;26.20;;;;;;5054779;28;20501;-63
2021/09/10 09:33:30;;;;;;;13.35;9.88;;;25.60;25.90;;;;;;5057482;28;20432;-64
2021/09/10 09:35:57;;;;;;;;;;;25.70;26.30;;;;;;5073270;28;20057;-63
2021/09/10 09:38:26;;;;;;;15.35;10.60;;;25.80;25.90;;;;;;5092985;28;19911;-64
2021/09/10 09:40:55;;;;;;;11.55;10.15;;;25.80;25.70;;;;;;5091899;28;20027;-64
2021/09/10 09:43:24;;;;;;;14.13;10.93;;;25.90;25.60;;;;;;5092845;28;20032;-63
2021/09/10 09:45:51;;;;;;;14.02;11.18;;;26.10;25.60;;;;;;5092098;28;20031;-64
2021/09/10 09:48:19;;;;;;;17.83;11.40;;;26.10;25.10;;;;;;5074590;28;20558;-63
2021/09/10 09:50:48;;;;;;;19.13;11.50;;;26.30;24.80;;;;;;5091838;28;20066;-64
2021/09/10 09:53:14;;;;;;;16.38;11.93;;;26.40;24.50;;;;;;5074166;28;20024;-63
2021/09/10 09:55:44;;;;;;;17.13;11.70;;;26.60;24.70;;;;;;5092375;28;20028;-63
2021/09/10 09:58:10;;;;;;;12.57;10.70;;;26.70;25.00;;;;;;5092660;28;20382;-63
2021/09/10 10:00:38;;;;;;;14.13;11.43;;;26.70;25.00;;;;;;5091397;28;20028;-64
2021/09/10 10:03:04;;;;;;;18.23;11.60;;;26.90;25.20;;;;;;5092349;28;20036;-64
2021/09/10 10:05:46;;;;;;;15.23;10.70;;;27.00;24.80;;;;;;5092028;28;20063;-64
2021/09/10 10:08:16;;;;;;;15.45;11.05;;;27.10;25.00;;;;;;5073587;28;20033;-65
2021/09/10 10:10:47;;;;;;;13.90;11.05;;;27.10;23.50;;;;;;5093097;28;20024;-64
2021/09/10 10:13:19;;;;;;;13.40;10.10;;;27.00;23.20;;;;;;5076648;28;20024;-64
2021/09/10 10:15:47;;;;;;;13.13;10.77;;;27.20;23.00;;;;;;5083755;28;20036;-63
2021/09/10 10:18:39;;;;;;;12.30;10.57;;;27.30;23.00;;;;;;5078057;28;20031;-64
2021/09/10 10:21:09;;;;;;;16.33;10.30;;;27.50;22.70;;;;;;5093085;28;20020;-64
2021/09/10 10:23:44;;;;;;;12.77;9.35;;;27.60;22.50;;;;;;5076898;28;20512;-64
2021/09/10 10:26:33;;;;;;;14.48;10.65;;;27.70;21.60;;;;;;5094133;28;20024;-63
2021/09/10 10:29:14;;;;;;;12.73;9.98;;;27.80;21.60;;;;;;5095434;28;20032;-64
2021/09/10 10:31:57;;;;;;;13.63;9.95;;;27.70;21.90;;;;;;5095732;28;20028;-64
2021/09/10 10:34:24;;;;;;;10.43;9.43;;;27.70;22.20;;;;;;5096337;28;20028;-64
2021/09/10 10:36:50;;;;;;;13.75;10.90;;;27.70;22.10;;;;;;5095411;28;20085;-64
2021/09/10 10:39:29;;;;;;;13.23;10.32;;;27.80;22.10;;;;;;5077649;28;20489;-64
2021/09/10 10:42:06;;;;;;;13.82;12.25;;;27.90;22.20;;;;;;5095887;28;20483;-64
2021/09/10 10:44:35;;;;;;;15.52;10.30;;;27.90;22.70;;;;;;5096074;28;20024;-64
2021/09/10 10:47:12;;;;;;;9.95;8.57;;;28.00;22.50;;;;;;5095469;28;20038;-64
2021/09/10 10:49:49;;;;;;;16.10;10.15;;;28.10;22.60;;;;;;5094784;28;20430;-62
2021/09/10 10:52:30;;;;;;;13.45;10.02;;;28.10;23.40;;;;;;5094948;28;20020;-64
2021/09/10 10:55:17;;;;;;;13.57;9.88;;;28.20;23.50;;;;;;5077549;28;20520;-64
2021/09/10 10:57:43;;;;;;;18.35;11.35;;;28.30;22.00;;;;;;5094699;28;20512;-63
2021/09/10 11:00:28;;;;;;;13.35;10.23;;;28.40;22.20;;;;;;5077261;28;20525;-63
2021/09/10 11:03:21;;;;;;;12.82;10.52;;;28.30;21.40;;;;;;5094456;28;20036;-63
2021/09/10 11:05:50;;;;;;;12.82;10.90;;;28.40;21.60;;;;;;5064551;28;20160;-63
2021/09/10 11:08:36;;;;;;;14.75;12.50;;;28.20;21.50;;;;;;5095093;28;20020;-63
2021/09/10 11:11:03;;;;;;;15.13;9.73;;;28.10;21.40;;;;;;5091730;28;20099;-63
2021/09/10 11:13:29;;;;;;;12.80;10.50;;;28.20;21.70;;;;;;5076678;28;20023;-63
2021/09/10 11:15:56;;;;;;;17.00;10.55;;;28.20;21.20;;;;;;5093953;28;20040;-63
2021/09/10 11:18:24;;;;;;;12.57;11.32;;;28.30;21.40;;;;;;5095398;28;20028;-64
2021/09/10 11:20:53;;;;;;;14.73;11.68;;;28.20;21.30;;;;;;5093613;28;20024;-64
2021/09/10 11:23:28;;;;;;;10.68;9.68;;;28.10;21.40;;;;;;5095290;28;20489;-63
2021/09/10 11:25:55;;;;;;;13.82;10.82;;;28.20;21.20;;;;;;5094619;28;20023;-64
2021/09/10 11:28:22;;;;;;;14.80;10.35;;;28.10;21.00;;;;;;5095323;28;20032;-64
2021/09/10 11:30:50;;;;;;;10.15;9.30;;;28.10;20.90;;;;;;5094479;28;20490;-63
2021/09/10 11:33:18;;;;;;;12.15;10.93;;;28.20;21.00;;;;;;5094000;28;20115;-63
2021/09/10 11:35:45;;;;;;;12.98;11.38;;;28.30;20.60;;;;;;5076690;28;20111;-64
2021/09/10 11:41:34;;;;;;;13.82;10.02;;;28.40;20.00;;;;;;5088074;28;20054;-63
2021/09/10 11:44:10;;;;;;;12.68;9.80;;;28.70;20.30;;;;;;5094118;28;20102;-64
2021/09/10 11:46:36;;;;;;;17.77;13.02;;;28.70;19.70;;;;;;5091222;28;20028;-64
2021/09/10 11:49:02;;;;;;;10.82;9.63;;;28.90;19.80;;;;;;5076455;28;20023;-63
2021/09/10 11:51:42;;;;;;;11.50;8.57;;;29.10;18.80;;;;;;5094856;28;20020;-63
2021/09/10 11:54:13;;;;;;;13.60;8.82;;;29.40;18.40;;;;;;5094757;28;20019;-64
2021/09/10 11:56:40;;;;;;;14.82;9.23;;;;;;;;;;5094295;28;20028;-62
2021/09/10 11:59:20;;;;;;;12.48;9.07;;;30.00;49.00;;;;;;5094252;28;20635;-63
2021/09/10 12:01:46;;;;;;;10.38;8.57;;;30.70;32.90;;;;;;5094748;28;20028;-63
2021/09/10 12:04:24;;;;;;;10.68;8.50;;;30.40;32.80;;;;;;5084250;28;20036;-64
2021/09/10 12:06:52;;;;;;;12.95;8.60;;;30.30;31.40;;;;;;5055641;28;20117;-64
2021/09/10 12:09:22;;;;;;;11.55;8.50;;;30.20;31.40;;;;;;5093545;28;20020;-63
2021/09/10 12:12:17;;;;;;;12.68;8.52;;;29.80;30.60;;;;;;5082169;28;20378;-65
2021/09/10 12:14:45;;;;;;;10.13;7.90;;;29.90;29.70;;;;;;5094428;28;20024;-63
2021/09/10 12:17:21;;;;;;;10.43;8.32;;;30.10;30.00;;;;;;5092932;28;20166;-62
2021/09/10 12:19:53;;;;;;;12.88;8.60;;;30.20;29.90;;;;;;5075888;28;20416;-62
2021/09/10 12:22:36;;;;;;;12.98;8.95;;;30.70;30.20;;;;;;5075168;28;20036;-63
2021/09/10 12:25:23;;;;;;;9.48;8.57;;;31.10;34.50;;;;;;5075803;28;20032;-63
2021/09/10 12:27:51;;;;;;;9.40;8.25;;;31.20;32.20;;;;;;5093496;28;20027;-63
2021/09/10 12:30:20;;;;;;;11.70;8.10;;;31.20;23.40;;;;;;5094227;28;20024;-63
2021/09/10 12:32:48;;;;;;;9.27;8.35;;;31.00;22.80;;;;;;5092117;28;20493;-63
2021/09/10 12:35:14;;;;;;;12.98;9.00;;;30.40;23.10;;;;;;5093877;28;20028;-63
2021/09/10 12:37:39;;;;;;;9.80;8.23;;;30.10;23.50;;;;;;5093101;28;20085;-63